Sparta, Michigan
Current Conditions -  °F | °C
As of 4:53 PM on Sunday 23 Nov 2014 (Local Time) from KGRR Reporting Station
Moderate Rain Moderate Rain  
Wind Chill: 50°   Ceiling: 1800
Heat Index: 50°   Visibility: 2.5mi
Dew Point: 46°   Wind: 12mph
Humidity: 86%   Direction: 130°SE
Pressure: 29.57"   Gusts: NA
Location:  43.16°N, 85.71°W
Report Text: KGRR 232153Z 13010KT 2 1/2SM RA BR BKN018 BKN035 OVC070 10/08 A2957 RMK AO2 SLP014 P0003 T01000078
Loading
Personal Weather Stations






























Interactive Weather Map New forecast layout! Learn more

10-Day Weather Forecast

Advertisements
Track Severe Weather on mobile